Time;durP1;ratioP1;P1;durP2;ratioP2;P2;SDS_P1;SDS_P2;PMS_P1;PMS_P2;Temp;Humidity;BMP_temperature;BMP_pressure;BME280_temperature;BME280_humidity;BME280_pressure;Samples;Min_cycle;Max_cycle;Signal;HPM_P1;HPM_P2
2022/07/22 00:00:08;;;;;;;0.00;0.00;;;21.40;99.90;226.50;231333.00;;;;5093288;28;20708;-70
2022/07/22 00:02:36;;;;;;;0.00;0.00;;;21.40;99.90;226.50;231333.00;;;;5093423;28;20186;-69
2022/07/22 00:05:10;;;;;;;0.00;0.00;;;21.30;99.90;226.50;231333.00;;;;5093217;28;20174;-69
2022/07/22 00:07:38;;;;;;;0.00;0.00;;;21.30;99.90;226.50;231333.00;;;;5093345;28;20196;-70
2022/07/22 00:10:10;;;;;;;0.00;0.00;;;21.30;99.90;226.50;231333.00;;;;5095870;28;20235;-71
2022/07/22 00:12:39;;;;;;;0.00;0.00;;;21.30;99.90;226.50;231333.00;;;;5092748;28;20208;-71
2022/07/22 00:15:10;;;;;;;0.00;0.00;;;21.20;99.90;226.50;231333.00;;;;5092557;28;20209;-70
2022/07/22 00:17:38;;;;;;;0.00;0.00;;;21.20;99.90;226.50;231333.00;;;;5093304;28;20208;-71
2022/07/22 00:20:10;;;;;;;0.00;0.00;;;21.20;99.90;226.50;231333.00;;;;5092430;28;20221;-70
2022/07/22 00:22:38;;;;;;;0.00;0.00;;;21.30;99.90;226.50;231333.00;;;;5092004;28;20209;-71
2022/07/22 00:25:07;;;;;;;0.00;0.00;;;21.40;99.90;226.50;231333.00;;;;5092189;28;20203;-72
2022/07/22 00:27:35;;;;;;;0.00;0.00;;;21.50;99.90;226.50;231333.00;;;;5092505;28;20189;-71
2022/07/22 00:30:04;;;;;;;0.00;0.00;;;21.50;99.90;226.50;231333.00;;;;5091191;28;20230;-71
2022/07/22 00:32:32;;;;;;;0.00;0.00;;;21.40;99.90;226.50;231333.00;;;;5074514;28;20718;-71
2022/07/22 00:35:00;;;;;;;0.00;0.00;;;21.30;99.90;226.50;231333.00;;;;5087575;28;20201;-71
2022/07/22 00:37:30;;;;;;;0.00;0.00;;;21.20;99.90;226.50;231333.00;;;;5071880;28;20316;-71
2022/07/22 00:39:58;;;;;;;0.00;0.00;;;21.00;99.90;226.50;231333.00;;;;5072159;28;20225;-71
2022/07/22 00:42:26;;;;;;;0.00;0.00;;;21.00;99.90;226.50;231333.00;;;;5088259;28;20204;-71
2022/07/22 00:44:55;;;;;;;0.00;0.00;;;20.90;99.90;226.50;231333.00;;;;5074577;28;20276;-70
2022/07/22 00:47:24;;;;;;;0.00;0.00;;;20.70;99.90;226.50;231333.00;;;;5074377;28;20262;-71
2022/07/22 00:49:53;;;;;;;0.00;0.00;;;20.60;99.90;226.50;231333.00;;;;5091649;28;20617;-71
2022/07/22 00:52:22;;;;;;;0.00;0.00;;;20.60;99.90;226.50;231333.00;;;;5070492;28;20189;-70
2022/07/22 00:54:52;;;;;;;0.00;0.00;;;20.60;99.90;226.50;231333.00;;;;5055313;28;20181;-71
2022/07/22 00:57:21;;;;;;;0.00;0.00;;;20.40;99.90;226.50;231333.00;;;;5091862;28;20598;-70
2022/07/22 00:59:49;;;;;;;0.00;0.00;;;20.20;99.90;226.50;231333.00;;;;5090513;28;20223;-73
2022/07/22 01:02:17;;;;;;;0.00;0.00;;;20.10;99.90;226.50;231333.00;;;;5086459;28;20664;-71
2022/07/22 01:04:45;;;;;;;0.00;0.00;;;20.20;99.90;226.50;231333.00;;;;5085644;28;20189;-71
2022/07/22 01:07:16;;;;;;;0.00;0.00;;;20.00;99.90;226.50;231333.00;;;;5074605;28;20217;-70
2022/07/22 01:09:45;;;;;;;0.00;0.00;;;19.80;99.90;226.50;231333.00;;;;5080138;28;20216;-70
2022/07/22 01:12:14;;;;;;;0.00;0.00;;;19.90;99.90;226.50;231333.00;;;;5091553;28;20192;-72
2022/07/22 01:14:43;;;;;;;0.00;0.00;;;20.00;99.90;226.50;231333.00;;;;5073790;28;20200;-72
2022/07/22 01:17:11;;;;;;;0.00;0.00;;;20.10;99.90;226.50;231333.00;;;;5090850;28;20203;-73
2022/07/22 01:19:39;;;;;;;0.00;0.00;;;19.90;99.90;226.50;231333.00;;;;5077547;28;20316;-72
2022/07/22 01:22:09;;;;;;;0.00;0.00;;;19.90;99.90;226.50;231333.00;;;;5099173;28;20225;-71
2022/07/22 01:24:37;;;;;;;0.00;0.00;;;19.70;99.90;226.50;231333.00;;;;5074738;28;20291;-70
2022/07/22 01:27:06;;;;;;;0.00;0.00;;;19.30;99.90;226.50;231333.00;;;;5091810;28;20215;-71
2022/07/22 01:29:34;;;;;;;0.00;0.00;;;19.10;99.90;226.50;231333.00;;;;5069907;28;20249;-70
2022/07/22 01:32:02;;;;;;;0.00;0.00;;;19.10;99.90;226.50;231333.00;;;;5072976;28;20667;-70
2022/07/22 01:34:30;;;;;;;0.00;0.00;;;19.20;99.90;226.50;231333.00;;;;5079441;28;20292;-70
2022/07/22 01:36:58;;;;;;;0.00;0.00;;;19.20;99.90;226.50;231333.00;;;;5078697;28;20558;-70
2022/07/22 01:39:28;;;;;;;0.00;0.00;;;19.00;99.90;226.50;231333.00;;;;5079241;28;20221;-70
2022/07/22 01:41:56;;;;;;;0.00;0.00;;;19.00;99.90;226.50;231333.00;;;;5078621;28;20270;-71
2022/07/22 01:44:24;;;;;;;0.00;0.00;;;19.00;99.90;226.50;231333.00;;;;5095070;28;20195;-71
2022/07/22 01:46:53;;;;;;;0.00;0.00;;;19.00;99.90;226.50;231333.00;;;;5077102;28;20203;-71
2022/07/22 01:49:23;;;;;;;0.00;0.00;;;18.90;99.90;226.50;231333.00;;;;5109779;28;20244;-71
2022/07/22 01:51:51;;;;;;;0.00;0.00;;;18.90;99.90;226.50;231333.00;;;;5076503;28;20189;-70
2022/07/22 01:54:20;;;;;;;0.00;0.00;;;18.90;99.90;226.50;231333.00;;;;5072599;28;20200;-71
2022/07/22 01:56:49;;;;;;;0.00;0.00;;;18.90;99.90;226.50;231333.00;;;;5077189;28;20264;-70
2022/07/22 01:59:17;;;;;;;0.00;0.00;;;19.20;99.90;226.50;231333.00;;;;5090925;28;20312;-71
2022/07/22 02:01:46;;;;;;;0.00;0.00;;;19.20;99.90;226.50;231333.00;;;;5068736;28;20188;-71
2022/07/22 02:04:15;;;;;;;0.00;0.00;;;19.20;99.90;226.50;231333.00;;;;5095651;28;20660;-71
2022/07/22 02:06:43;;;;;;;0.00;0.00;;;19.20;99.90;226.50;231333.00;;;;5093579;28;20222;-71
2022/07/22 02:09:13;;;;;;;0.00;0.00;;;19.20;99.90;226.50;231333.00;;;;5072761;28;20582;-72
2022/07/22 02:11:43;;;;;;;0.00;0.00;;;19.20;99.90;226.50;231333.00;;;;5092496;28;20280;-71
2022/07/22 02:14:15;;;;;;;0.00;0.00;;;19.30;99.90;226.50;231333.00;;;;5076268;28;20193;-71
2022/07/22 02:16:44;;;;;;;0.00;0.00;;;19.30;99.90;226.50;231333.00;;;;5076532;28;20197;-71
2022/07/22 02:19:13;;;;;;;0.00;0.00;;;19.30;99.90;226.50;231333.00;;;;5074119;28;20696;-72
2022/07/22 02:21:41;;;;;;;0.00;0.00;;;19.30;99.90;226.50;231333.00;;;;5085838;28;20205;-71
2022/07/22 02:24:09;;;;;;;0.00;0.00;;;19.20;99.90;226.50;231333.00;;;;5074275;28;20188;-70
2022/07/22 02:26:37;;;;;;;0.00;0.00;;;19.10;99.90;226.50;231333.00;;;;5091916;28;20575;-71
2022/07/22 02:29:05;;;;;;;0.00;0.00;;;19.00;99.90;226.50;231333.00;;;;5092600;28;20742;-71
2022/07/22 02:31:34;;;;;;;0.00;0.00;;;18.90;99.90;226.50;231333.00;;;;5084874;28;20711;-71
2022/07/22 02:34:07;;;;;;;0.00;0.00;;;18.90;99.90;226.50;231333.00;;;;5093029;28;20277;-71
2022/07/22 02:36:37;;;;;;;0.00;0.00;;;18.70;99.90;226.50;231333.00;;;;5109455;28;20475;-70
2022/07/22 02:39:05;;;;;;;0.00;0.00;;;18.60;99.90;226.50;231333.00;;;;5064773;28;20279;-70
2022/07/22 02:41:36;;;;;;;0.00;0.00;;;18.80;99.90;226.50;231333.00;;;;5067571;28;20190;-70
2022/07/22 02:44:05;;;;;;;0.00;0.00;;;18.80;99.90;226.50;231333.00;;;;5055474;28;20204;-71
2022/07/22 02:46:35;;;;;;;0.00;0.00;;;18.90;99.90;226.50;231333.00;;;;5055254;28;20209;-72
2022/07/22 02:49:20;;;;;;;0.00;0.00;;;18.80;99.90;226.50;231333.00;;;;5055310;28;20225;-71
2022/07/22 02:51:48;;;;;;;0.00;0.00;;;18.70;99.90;226.50;231333.00;;;;5073059;28;20188;-70
2022/07/22 02:54:16;;;;;;;0.00;0.00;;;18.60;99.90;226.50;231333.00;;;;5055060;28;20703;-71
2022/07/22 02:56:44;;;;;;;0.00;0.00;;;18.60;99.90;226.50;231333.00;;;;5072826;28;20194;-71
2022/07/22 02:59:12;;;;;;;0.00;0.00;;;18.70;99.90;226.50;231333.00;;;;5082719;28;20613;-70
2022/07/22 03:01:42;;;;;;;0.00;0.00;;;18.70;99.90;226.50;231333.00;;;;5075249;28;20201;-70
2022/07/22 03:04:11;;;;;;;0.00;0.00;;;18.60;99.90;226.50;231333.00;;;;5066000;28;20706;-71
2022/07/22 03:06:40;;;;;;;0.00;0.00;;;18.60;99.90;226.50;231333.00;;;;5072277;28;20228;-71
2022/07/22 03:09:12;;;;;;;0.00;0.00;;;18.50;99.90;226.50;231333.00;;;;5064444;28;20569;-71
2022/07/22 03:11:43;;;;;;;0.00;0.00;;;18.50;99.90;226.50;231333.00;;;;5089381;28;20197;-71
2022/07/22 03:14:12;;;;;;;0.00;0.00;;;18.50;99.90;226.50;231333.00;;;;5093102;28;20188;-71
2022/07/22 03:16:42;;;;;;;0.00;0.00;;;18.50;99.90;226.50;231333.00;;;;5095901;28;20276;-71
2022/07/22 03:19:10;;;;;;;0.00;0.00;;;18.40;99.90;226.50;231333.00;;;;5073376;28;20226;-71
2022/07/22 03:21:38;;;;;;;0.00;0.00;;;18.50;99.90;226.50;231333.00;;;;5031636;28;1002960;-71
2022/07/22 03:24:08;;;;;;;0.00;0.00;;;18.50;99.90;226.50;231333.00;;;;5088914;28;20202;-72
2022/07/22 03:26:36;;;;;;;0.00;0.00;;;18.60;99.90;226.50;231333.00;;;;5055881;28;20201;-72
2022/07/22 03:29:04;;;;;;;0.00;0.00;;;18.70;99.90;226.50;231333.00;;;;5065591;28;20726;-72
2022/07/22 03:31:32;;;;;;;0.00;0.00;;;18.70;99.90;226.50;231333.00;;;;5093836;28;20254;-71
2022/07/22 03:34:02;;;;;;;0.00;0.00;;;18.60;99.90;226.50;231333.00;;;;5094345;28;20174;-70
2022/07/22 03:36:35;;;;;;;0.00;0.00;;;18.30;99.90;226.50;231333.00;;;;5076288;28;20229;-73
2022/07/22 03:39:04;;;;;;;0.00;0.00;;;18.30;99.90;226.50;231333.00;;;;5089848;28;20737;-70
2022/07/22 03:41:32;;;;;;;0.00;0.00;;;18.20;99.90;226.50;231333.00;;;;5075109;28;20223;-71
2022/07/22 03:44:01;;;;;;;0.00;0.00;;;18.30;99.90;226.50;231333.00;;;;5071145;28;20198;-71
2022/07/22 03:46:29;;;;;;;0.00;0.00;;;18.10;99.90;226.50;231333.00;;;;5075063;28;20561;-71
2022/07/22 03:48:57;;;;;;;0.10;0.10;;;18.20;99.90;226.50;231333.00;;;;5074727;28;20221;-71
2022/07/22 03:51:27;;;;;;;0.00;0.00;;;18.20;99.90;226.50;231333.00;;;;5078497;28;20243;-71
2022/07/22 03:54:01;;;;;;;0.00;0.00;;;18.20;99.90;226.50;231333.00;;;;5073261;28;20208;-73
2022/07/22 03:56:30;;;;;;;0.00;0.00;;;18.10;99.90;226.50;231333.00;;;;5074302;28;20197;-74
2022/07/22 03:58:58;;;;;;;0.00;0.00;;;18.10;99.90;226.50;231333.00;;;;5073946;28;20243;-71
2022/07/22 04:01:27;;;;;;;0.00;0.00;;;18.00;99.90;226.50;231333.00;;;;5074167;28;20197;-71
2022/07/22 04:03:55;;;;;;;0.08;0.08;;;18.00;99.90;226.50;231333.00;;;;5073878;28;20618;-71
2022/07/22 04:06:37;;;;;;;0.00;0.00;;;17.90;99.90;226.50;231333.00;;;;5074639;28;20196;-70
2022/07/22 04:09:16;;;;;;;0.00;0.00;;;17.90;99.90;226.50;231333.00;;;;5075008;28;20656;-70
2022/07/22 04:11:44;;;;;;;0.00;0.00;;;18.00;99.90;226.50;231333.00;;;;5091607;28;20193;-74
2022/07/22 04:14:12;;;;;;;0.00;0.00;;;18.00;99.90;226.50;231333.00;;;;5090410;28;20297;-74
2022/07/22 04:16:40;;;;;;;0.00;0.00;;;18.00;99.90;226.50;231333.00;;;;5073926;28;20204;-72
2022/07/22 04:19:10;;;;;;;0.00;0.00;;;18.00;99.90;226.50;231333.00;;;;5073255;28;20726;-70
2022/07/22 04:21:51;;;;;;;0.10;0.00;;;18.00;99.90;226.50;231333.00;;;;5069586;28;20248;-72
2022/07/22 04:24:21;;;;;;;0.00;0.00;;;18.00;99.90;226.50;231333.00;;;;5074183;28;20189;-71
2022/07/22 04:26:51;;;;;;;0.00;0.00;;;18.10;99.90;226.50;231333.00;;;;5070612;28;20194;-72
2022/07/22 04:29:19;;;;;;;0.00;0.00;;;18.00;99.90;226.50;231333.00;;;;5082370;28;20223;-72
2022/07/22 04:31:47;;;;;;;0.00;0.00;;;18.00;99.90;226.50;231333.00;;;;5087395;28;20197;-72
2022/07/22 04:34:18;;;;;;;0.00;0.00;;;17.90;99.90;226.50;231333.00;;;;5070929;28;20254;-71
2022/07/22 04:36:48;;;;;;;0.10;0.10;;;18.10;99.90;226.50;231333.00;;;;5054311;28;20198;-72
2022/07/22 04:39:18;;;;;;;0.00;0.00;;;18.10;99.90;226.50;231333.00;;;;5078601;28;20289;-73
2022/07/22 04:41:57;;;;;;;0.00;0.00;;;18.10;99.90;226.50;231333.00;;;;5069091;28;20216;-72
2022/07/22 04:44:30;;;;;;;0.00;0.00;;;18.20;99.90;226.50;231333.00;;;;5092517;28;20288;-72
2022/07/22 04:46:58;;;;;;;0.00;0.00;;;18.20;99.90;226.50;231333.00;;;;5070859;28;20738;-71
2022/07/22 04:49:33;;;;;;;0.00;0.00;;;18.10;99.90;226.50;231333.00;;;;5085797;28;20204;-71
2022/07/22 04:52:03;;;;;;;0.00;0.00;;;18.10;99.90;226.50;231333.00;;;;5092064;28;20204;-72
2022/07/22 04:54:42;;;;;;;0.00;0.00;;;18.10;99.90;226.50;231333.00;;;;5064863;28;20292;-72
2022/07/22 04:57:11;;;;;;;0.00;0.00;;;18.20;99.90;226.50;231333.00;;;;5081200;28;20196;-71
2022/07/22 04:59:39;;;;;;;0.00;0.00;;;18.20;99.90;226.50;231333.00;;;;5060259;28;20225;-70
2022/07/22 05:02:08;;;;;;;0.00;0.00;;;18.30;99.90;226.50;231333.00;;;;5069351;28;20283;-72
2022/07/22 05:04:36;;;;;;;0.00;0.00;;;18.30;99.90;226.50;231333.00;;;;5090606;28;20200;-72
2022/07/22 05:07:05;;;;;;;0.00;0.00;;;18.30;99.90;226.50;231333.00;;;;5088845;28;20565;-71
2022/07/22 05:09:33;;;;;;;0.08;0.08;;;18.40;99.90;226.50;231333.00;;;;5088352;28;20209;-72
2022/07/22 05:12:04;;;;;;;0.00;0.00;;;18.50;99.90;226.50;231333.00;;;;5072326;28;20223;-73
2022/07/22 05:14:32;;;;;;;0.05;0.05;;;18.40;99.90;226.50;231333.00;;;;5089592;28;20193;-72
2022/07/22 05:17:00;;;;;;;0.00;0.00;;;18.50;99.90;226.50;231333.00;;;;5073556;28;20660;-72
2022/07/22 05:19:30;;;;;;;0.00;0.00;;;18.60;99.90;226.50;231333.00;;;;5073223;28;20223;-72
2022/07/22 05:21:58;;;;;;;0.00;0.00;;;18.50;99.90;226.50;231333.00;;;;5087184;28;20248;-73
2022/07/22 05:24:28;;;;;;;0.00;0.00;;;18.40;99.90;226.50;231333.00;;;;5064871;28;20193;-72
2022/07/22 05:26:57;;;;;;;0.00;0.00;;;18.40;99.90;226.50;231333.00;;;;5054028;28;20342;-71
2022/07/22 05:29:26;;;;;;;0.00;0.00;;;18.50;99.90;226.50;231333.00;;;;5085976;28;20213;-72
2022/07/22 05:31:54;;;;;;;0.00;0.00;;;18.70;99.90;226.50;231333.00;;;;5095463;28;20664;-72
2022/07/22 05:34:23;;;;;;;0.00;0.00;;;18.80;99.90;226.50;231333.00;;;;5073875;28;20291;-72
2022/07/22 05:36:54;;;;;;;0.00;0.00;;;18.80;99.90;226.50;231333.00;;;;5073474;28;20235;-72
2022/07/22 05:39:22;;;;;;;0.00;0.00;;;18.90;99.90;226.50;231333.00;;;;5074173;28;20603;-72
2022/07/22 05:41:50;;;;;;;0.00;0.00;;;18.90;99.90;226.50;231333.00;;;;5073126;28;20224;-72
2022/07/22 05:44:23;;;;;;;0.00;0.00;;;18.90;99.90;226.50;231333.00;;;;5073936;28;20204;-72
2022/07/22 05:46:53;;;;;;;0.00;0.00;;;19.10;99.90;226.50;231333.00;;;;5091246;28;20193;-72
2022/07/22 05:49:21;;;;;;;0.00;0.00;;;19.20;99.90;226.50;231333.00;;;;5089957;28;20209;-72
2022/07/22 05:51:57;;;;;;;0.00;0.00;;;19.30;99.90;226.50;231333.00;;;;5072546;28;20280;-72
2022/07/22 05:54:25;;;;;;;0.00;0.00;;;19.40;99.90;226.50;231333.00;;;;5073268;28;20208;-73
2022/07/22 05:56:53;;;;;;;0.00;0.00;;;19.50;99.90;226.50;231333.00;;;;5073355;28;20204;-73
2022/07/22 05:59:25;;;;;;;0.00;0.00;;;19.50;99.90;226.50;231333.00;;;;5099369;28;20209;-73
2022/07/22 06:01:54;;;;;;;0.00;0.00;;;19.50;99.90;226.50;231333.00;;;;5084987;28;20213;-72
2022/07/22 06:04:38;;;;;;;0.00;0.00;;;19.70;99.90;226.50;231333.00;;;;5072284;28;20242;-72
2022/07/22 06:07:07;;;;;;;0.00;0.00;;;19.80;99.90;226.50;231333.00;;;;5072810;28;20682;-73
2022/07/22 06:09:35;;;;;;;0.00;0.00;;;19.90;99.90;226.50;231333.00;;;;5089338;28;20300;-72
2022/07/22 06:12:04;;;;;;;0.00;0.00;;;20.00;99.90;226.50;231333.00;;;;5089721;28;20289;-72
2022/07/22 06:14:32;;;;;;;0.00;0.00;;;20.00;99.90;226.50;231333.00;;;;5073499;28;20304;-73
2022/07/22 06:17:01;;;;;;;0.00;0.00;;;20.10;99.90;226.50;231333.00;;;;5071787;28;20206;-75
2022/07/22 06:19:30;;;;;;;0.00;0.00;;;20.20;99.90;226.50;231333.00;;;;5090977;28;20307;-72
2022/07/22 06:21:58;;;;;;;0.00;0.00;;;20.30;99.90;226.50;231333.00;;;;5092930;28;20213;-72
2022/07/22 06:24:26;;;;;;;0.00;0.00;;;20.40;99.90;226.50;231333.00;;;;5094328;28;20692;-73
2022/07/22 06:26:55;;;;;;;0.00;0.00;;;20.40;99.90;226.50;231333.00;;;;5093651;28;20207;-73
2022/07/22 06:29:23;;;;;;;0.00;0.00;;;20.50;99.90;226.50;231333.00;;;;5076202;28;20625;-72
2022/07/22 06:31:51;;;;;;;0.00;0.00;;;20.60;99.90;226.50;231333.00;;;;5074026;28;20276;-72
2022/07/22 06:34:20;;;;;;;0.00;0.00;;;20.60;99.90;226.50;231333.00;;;;5109618;28;20223;-73
2022/07/22 06:36:57;;;;;;;0.00;0.00;;;20.60;99.90;226.50;231333.00;;;;5076176;28;20220;-72
2022/07/22 06:39:25;;;;;;;0.00;0.00;;;20.70;99.90;226.50;231333.00;;;;5094223;28;20221;-72
2022/07/22 06:42:10;;;;;;;0.00;0.00;;;20.90;99.90;226.50;231333.00;;;;5075556;28;20402;-75
2022/07/22 06:44:57;;;;;;;0.00;0.00;;;21.00;99.90;226.50;231333.00;;;;5074629;28;20224;-72
2022/07/22 06:47:40;;;;;;;0.00;0.00;;;21.00;99.90;226.50;231333.00;;;;5061199;28;20212;-72
2022/07/22 06:50:12;;;;;;;0.00;0.00;;;21.10;99.90;226.50;231333.00;;;;5075458;28;20224;-72
2022/07/22 06:52:42;;;;;;;0.00;0.00;;;21.20;99.90;226.50;231333.00;;;;5094437;28;20196;-72
2022/07/22 06:55:12;;;;;;;0.00;0.00;;;21.30;99.90;226.50;231333.00;;;;5073451;28;20603;-71
2022/07/22 06:57:47;;;;;;;0.00;0.00;;;21.40;99.90;226.50;231333.00;;;;5072594;28;20201;-72
2022/07/22 07:00:18;;;;;;;0.00;0.00;;;21.60;99.90;226.50;231333.00;;;;5076705;28;20212;-72
2022/07/22 07:03:18;;;;;;;0.00;0.00;;;21.80;99.90;226.50;231333.00;;;;5073854;28;20207;-72
2022/07/22 07:06:11;;;;;;;0.00;0.00;;;22.00;99.90;226.50;231333.00;;;;5072539;28;20256;-73
2022/07/22 07:08:57;;;;;;;0.00;0.00;;;22.20;99.90;226.50;231333.00;;;;5075291;28;20193;-71
2022/07/22 07:11:26;;;;;;;0.00;0.00;;;22.30;99.90;226.50;231333.00;;;;5075980;28;20567;-73
2022/07/22 07:13:55;;;;;;;0.00;0.00;;;22.40;99.90;226.50;231333.00;;;;5072197;28;20251;-72
2022/07/22 07:16:23;;;;;;;0.00;0.00;;;22.50;99.90;226.50;231333.00;;;;5055513;28;20202;-72
2022/07/22 07:18:51;;;;;;;0.00;0.00;;;22.40;99.90;226.50;231333.00;;;;5072583;28;20201;-71
2022/07/22 07:21:21;;;;;;;0.00;0.00;;;22.60;99.90;226.50;231333.00;;;;5069731;28;20217;-72
2022/07/22 07:23:49;;;;;;;0.00;0.00;;;22.60;99.90;226.50;231333.00;;;;5088596;28;20220;-72
2022/07/22 07:26:17;;;;;;;0.00;0.00;;;22.60;99.90;226.50;231333.00;;;;5066444;28;20189;-71
2022/07/22 07:28:47;;;;;;;0.00;0.00;;;22.70;99.90;226.50;231333.00;;;;5075379;28;20204;-71
2022/07/22 07:31:21;;;;;;;0.00;0.00;;;22.80;99.90;226.50;231333.00;;;;5075668;28;20687;-71
2022/07/22 07:33:53;;;;;;;0.00;0.00;;;22.90;99.90;226.50;231333.00;;;;5076025;28;20593;-72
2022/07/22 07:36:23;;;;;;;0.00;0.00;;;22.90;99.90;226.50;231333.00;;;;5093822;28;20200;-71
2022/07/22 07:38:51;;;;;;;0.00;0.00;;;23.10;99.90;226.50;231333.00;;;;5091889;28;20197;-71
2022/07/22 07:41:21;;;;;;;0.00;0.00;;;23.20;99.90;226.50;231333.00;;;;5071327;28;20317;-71
2022/07/22 07:43:51;;;;;;;0.00;0.00;;;23.30;99.90;226.50;231333.00;;;;5072263;28;20182;-72
2022/07/22 07:46:21;;;;;;;0.00;0.00;;;23.60;99.90;226.50;231333.00;;;;5068114;28;20205;-72
2022/07/22 07:48:51;;;;;;;0.00;0.00;;;23.70;99.90;226.50;231333.00;;;;5074816;28;20201;-71
2022/07/22 07:51:19;;;;;;;0.00;0.00;;;23.80;99.90;226.50;231333.00;;;;5075296;28;20226;-72
2022/07/22 07:53:49;;;;;;;0.00;0.00;;;23.80;99.90;226.50;231333.00;;;;5075121;28;20227;-72
2022/07/22 07:56:17;;;;;;;0.00;0.00;;;23.90;99.90;226.50;231333.00;;;;5074860;28;20207;-72
2022/07/22 07:58:46;;;;;;;0.00;0.00;;;24.10;99.90;226.50;231333.00;;;;5074229;28;20276;-72
2022/07/22 08:01:35;;;;;;;0.00;0.00;;;24.10;99.90;226.50;231333.00;;;;5074764;28;20228;-73
2022/07/22 08:04:23;;;;;;;0.00;0.00;;;24.30;99.90;226.50;231333.00;;;;5109058;28;20189;-71
2022/07/22 08:07:07;;;;;;;0.00;0.00;;;24.40;99.90;226.50;231333.00;;;;5108124;28;20218;-71
2022/07/22 08:09:39;;;;;;;0.00;0.00;;;24.50;99.90;226.50;231333.00;;;;5074403;28;20251;-72
2022/07/22 08:12:15;;;;;;;0.00;0.00;;;24.50;99.90;226.50;231333.00;;;;5074428;28;20287;-72
2022/07/22 08:15:13;;;;;;;0.00;0.00;;;24.40;99.90;226.50;231333.00;;;;5069291;28;20606;-72
2022/07/22 08:18:07;;;;;;;0.00;0.00;;;24.70;99.90;226.50;231333.00;;;;5087951;28;20204;-72
2022/07/22 08:20:35;;;;;;;0.00;0.00;;;24.90;99.90;226.50;231333.00;;;;5074449;28;20213;-72
2022/07/22 08:23:04;;;;;;;0.00;0.00;;;25.00;99.90;226.50;231333.00;;;;5073815;28;20248;-71
2022/07/22 08:25:35;;;;;;;0.00;0.00;;;25.10;99.90;226.50;231333.00;;;;5074717;28;20216;-71
2022/07/22 08:28:03;;;;;;;0.00;0.00;;;25.30;99.90;226.50;231333.00;;;;5082027;28;20201;-71
2022/07/22 08:30:31;;;;;;;0.00;0.00;;;25.40;99.90;226.50;231333.00;;;;5092063;28;20213;-71
2022/07/22 08:32:59;;;;;;;0.00;0.00;;;25.40;99.90;226.50;231333.00;;;;5092465;28;20272;-71
2022/07/22 08:35:27;;;;;;;0.00;0.00;;;25.40;99.90;226.50;231333.00;;;;5073986;28;20189;-71
2022/07/22 08:37:55;;;;;;;0.00;0.00;;;25.40;99.90;226.50;231333.00;;;;5090421;28;20188;-72
2022/07/22 08:40:25;;;;;;;0.00;0.00;;;25.70;99.90;226.50;231333.00;;;;5073566;28;20220;-73
2022/07/22 08:42:55;;;;;;;0.00;0.00;;;26.00;99.90;226.50;231333.00;;;;5073801;28;20237;-72
2022/07/22 08:45:24;;;;;;;0.00;0.00;;;26.00;99.90;226.50;231333.00;;;;5092115;28;20186;-72
2022/07/22 08:47:53;;;;;;;0.00;0.00;;;26.00;99.90;226.50;231333.00;;;;5074156;28;20257;-72
2022/07/22 08:51:00;;;;;;;0.00;0.00;;;26.10;99.90;226.50;231333.00;;;;5076860;28;20347;-71
2022/07/22 08:53:36;;;;;;;0.00;0.00;;;26.00;99.90;226.50;231333.00;;;;5074107;28;20203;-72
2022/07/22 08:56:12;;;;;;;0.00;0.00;;;26.10;99.90;226.50;231333.00;;;;5076290;28;20201;-72
2022/07/22 08:58:42;;;;;;;0.00;0.00;;;26.30;99.90;226.50;231333.00;;;;5075801;28;20197;-71
2022/07/22 09:01:13;;;;;;;0.00;0.00;;;26.40;99.90;226.50;231333.00;;;;5078833;28;20228;-72
2022/07/22 09:03:49;;;;;;;0.00;0.00;;;26.20;99.90;226.50;231333.00;;;;5077480;28;20271;-71
2022/07/22 09:06:20;;;;;;;0.00;0.00;;;26.30;99.90;226.50;231333.00;;;;5076049;28;20645;-71
2022/07/22 09:08:54;;;;;;;0.00;0.00;;;26.20;99.90;226.50;231333.00;;;;5074636;28;20284;-72
2022/07/22 09:11:41;;;;;;;0.00;0.00;;;26.40;99.90;226.50;231333.00;;;;5092252;28;20250;-72
2022/07/22 09:14:18;;;;;;;0.00;0.00;;;26.60;99.90;226.50;231333.00;;;;5076098;28;20643;-71
2022/07/22 09:16:54;;;;;;;0.00;0.00;;;26.50;99.60;226.50;231333.00;;;;5071234;28;20193;-71
2022/07/22 09:19:34;;;;;;;0.00;0.00;;;26.50;99.60;226.50;231333.00;;;;5079933;28;20249;-72
2022/07/22 09:22:42;;;;;;;0.00;0.00;;;26.40;99.80;226.50;231333.00;;;;5090372;28;20347;-72
2022/07/22 09:25:27;;;;;;;0.00;0.00;;;26.80;99.90;226.50;231333.00;;;;5073655;28;20196;-72
2022/07/22 09:28:24;;;;;;;0.00;0.00;;;27.20;99.70;226.50;231333.00;;;;5073587;28;20200;-72
2022/07/22 09:31:26;;;;;;;0.00;0.00;;;27.50;98.80;226.50;231333.00;;;;5091917;28;20196;-72
2022/07/22 09:34:03;;;;;;;0.00;0.00;;;27.90;98.60;226.50;231333.00;;;;5073798;28;20716;-71
2022/07/22 09:36:32;;;;;;;0.00;0.00;;;28.20;98.20;226.50;231333.00;;;;5073041;28;20208;-72
2022/07/22 09:39:00;;;;;;;0.00;0.00;;;28.50;98.00;226.50;231333.00;;;;5092042;28;20203;-71
2022/07/22 09:41:29;;;;;;;0.00;0.00;;;28.40;97.40;226.50;231333.00;;;;5089718;28;20304;-71
2022/07/22 09:43:57;;;;;;;0.00;0.00;;;28.40;97.10;226.50;231333.00;;;;5095194;28;20294;-72
2022/07/22 09:46:38;;;;;;;0.00;0.00;;;28.60;96.40;226.50;231333.00;;;;5105206;28;20193;-71
2022/07/22 09:49:32;;;;;;;0.00;0.00;;;28.80;96.10;226.50;231333.00;;;;5105656;28;20274;-71
2022/07/22 09:52:29;;;;;;;0.00;0.00;;;29.00;96.00;226.50;231333.00;;;;5075777;28;20356;-72
2022/07/22 09:55:07;;;;;;;0.00;0.00;;;29.20;96.40;226.50;231333.00;;;;5077287;28;20915;-74
2022/07/22 09:57:38;;;;;;;0.00;0.00;;;29.30;95.80;226.50;231333.00;;;;5096830;28;20228;-71
2022/07/22 10:00:09;;;;;;;0.00;0.00;;;29.30;95.30;226.50;231333.00;;;;5080303;28;20719;-71
2022/07/22 10:02:52;;;;;;;0.00;0.00;;;29.40;95.40;226.50;231333.00;;;;5058608;28;20217;-72
2022/07/22 10:05:24;;;;;;;0.00;0.00;;;29.20;95.20;226.50;231333.00;;;;5094265;28;20601;-72
2022/07/22 10:07:54;;;;;;;0.00;0.00;;;29.30;95.40;226.50;231333.00;;;;5079468;28;20193;-72
2022/07/22 10:10:26;;;;;;;0.00;0.00;;;29.20;94.90;226.50;231333.00;;;;5077729;28;20216;-71
2022/07/22 10:12:57;;;;;;;0.00;0.00;;;29.40;95.00;226.50;231333.00;;;;5074641;28;20273;-71
2022/07/22 10:15:28;;;;;;;0.00;0.00;;;29.40;94.90;226.50;231333.00;;;;5077027;28;20220;-72
2022/07/22 10:18:08;;;;;;;0.00;0.00;;;29.60;94.50;226.50;231333.00;;;;5093606;28;20211;-72
2022/07/22 10:20:38;;;;;;;0.00;0.00;;;29.60;94.20;226.50;231333.00;;;;5094610;28;20232;-72
2022/07/22 10:23:09;;;;;;;0.00;0.00;;;29.60;94.00;226.50;231333.00;;;;5077794;28;20609;-71
2022/07/22 10:25:53;;;;;;;0.00;0.00;;;29.70;94.40;226.50;231333.00;;;;5080956;28;20280;-71
2022/07/22 10:28:24;;;;;;;0.00;0.00;;;30.00;94.20;226.50;231333.00;;;;5075197;28;20193;-71
2022/07/22 10:30:54;;;;;;;0.00;0.00;;;30.30;93.90;226.50;231333.00;;;;5097629;28;20227;-71
2022/07/22 10:33:31;;;;;;;0.00;0.00;;;30.20;93.80;226.50;231333.00;;;;5097246;28;20735;-71
2022/07/22 10:36:02;;;;;;;0.00;0.00;;;30.50;93.50;226.50;231333.00;;;;5086741;28;20677;-72
2022/07/22 10:38:32;;;;;;;0.00;0.00;;;30.70;93.50;226.50;231333.00;;;;5080307;28;20213;-71
2022/07/22 10:41:03;;;;;;;0.00;0.00;;;30.90;93.10;226.50;231333.00;;;;5095371;28;20212;-72
2022/07/22 10:43:47;;;;;;;0.00;0.00;;;30.90;92.60;226.50;231333.00;;;;5094902;28;20224;-71
2022/07/22 10:46:15;;;;;;;0.00;0.00;;;30.80;92.00;226.50;231333.00;;;;5094634;28;20276;-71
2022/07/22 10:48:49;;;;;;;0.00;0.00;;;30.20;91.50;226.50;231333.00;;;;5092706;28;20702;-71
2022/07/22 10:51:21;;;;;;;0.00;0.00;;;30.30;91.50;226.50;231333.00;;;;5093916;28;20189;-71
2022/07/22 10:53:56;;;;;;;0.00;0.00;;;30.50;91.30;226.50;231333.00;;;;5095565;28;20196;-71
2022/07/22 10:56:29;;;;;;;0.00;0.00;;;30.80;90.80;226.50;231333.00;;;;5096355;28;20195;-71
2022/07/22 10:59:09;;;;;;;0.00;0.00;;;31.00;90.20;226.50;231333.00;;;;5078608;28;20558;-71